Time;durP1;ratioP1;P1;durP2;ratioP2;P2;SDS_P1;SDS_P2;PMS_P1;PMS_P2;Temp;Humidity;BMP_temperature;BMP_pressure;BME280_temperature;BME280_humidity;BME280_pressure;Samples;Min_cycle;Max_cycle;Signal;HPM_P1;HPM_P2
2023/06/06 00:01:18;;;;;;;7.20;6.80;;;20.20;25.00;;;;;;4995119;28;20530;-72
2023/06/06 00:03:48;;;;;;;7.90;7.20;;;20.20;25.10;;;;;;4995555;28;20441;-72
2023/06/06 00:06:15;;;;;;;7.80;7.50;;;20.20;25.30;;;;;;4995327;28;20785;-72
2023/06/06 00:08:42;;;;;;;7.30;6.80;;;20.10;25.40;;;;;;4995387;28;21003;-72
2023/06/06 00:11:09;;;;;;;6.97;6.67;;;20.10;25.70;;;;;;4994976;28;20413;-72
2023/06/06 00:13:35;;;;;;;7.87;7.37;;;20.10;25.90;;;;;;4994874;28;20952;-72
2023/06/06 00:16:02;;;;;;;7.60;7.30;;;20.00;25.80;;;;;;4995168;28;20513;-74
2023/06/06 00:18:28;;;;;;;8.43;8.00;;;20.00;25.90;;;;;;4995188;28;20421;-74
2023/06/06 00:20:54;;;;;;;7.63;7.23;;;20.00;25.90;;;;;;4994986;28;20475;-74
2023/06/06 00:23:21;;;;;;;7.33;7.03;;;20.00;25.90;;;;;;4994299;28;20579;-73
2023/06/06 00:25:48;;;;;;;7.97;7.57;;;20.00;25.90;;;;;;4995159;28;20783;-74
2023/06/06 00:28:13;;;;;;;7.70;7.20;;;20.00;25.90;;;;;;4994771;28;20456;-74
2023/06/06 00:30:39;;;;;;;7.40;6.90;;;20.00;25.90;;;;;;4995036;28;20417;-74
2023/06/06 00:33:05;;;;;;;7.73;7.43;;;19.90;25.80;;;;;;4994627;28;20190;-74
2023/06/06 00:35:30;;;;;;;6.70;6.30;;;19.90;25.80;;;;;;4995269;28;20181;-73
2023/06/06 00:37:56;;;;;;;6.90;6.60;;;19.90;25.90;;;;;;4994931;28;20185;-73
2023/06/06 00:40:21;;;;;;;7.33;7.03;;;19.90;25.80;;;;;;4994910;28;20208;-74
2023/06/06 00:42:48;;;;;;;7.40;7.00;;;19.90;25.80;;;;;;4993827;28;20194;-74
2023/06/06 00:45:13;;;;;;;8.37;7.87;;;19.90;25.80;;;;;;4994573;28;20174;-73
2023/06/06 00:47:39;;;;;;;7.53;7.13;;;19.90;25.80;;;;;;4994473;28;20421;-74
2023/06/06 00:50:06;;;;;;;8.00;7.60;;;19.80;25.90;;;;;;4994630;28;20594;-74
2023/06/06 00:52:33;;;;;;;7.80;7.50;;;19.80;25.90;;;;;;4992544;28;20237;-74
2023/06/06 00:54:58;;;;;;;7.43;7.10;;;19.80;25.90;;;;;;4994314;28;20838;-74
2023/06/06 00:57:26;;;;;;;7.87;7.50;;;19.80;25.90;;;;;;4994180;28;20471;-74
2023/06/06 00:59:52;;;;;;;7.97;7.47;;;19.80;25.90;;;;;;4994484;28;20641;-74
2023/06/06 01:02:18;;;;;;;7.63;7.23;;;19.80;26.00;;;;;;4993484;28;20563;-74
2023/06/06 01:04:45;;;;;;;8.20;7.80;;;19.80;25.90;;;;;;4994139;28;20817;-74
2023/06/06 01:07:12;;;;;;;7.63;7.13;;;19.80;26.00;;;;;;4992990;28;20495;-74
2023/06/06 01:09:39;;;;;;;7.67;7.30;;;19.70;25.90;;;;;;4994139;28;20472;-73
2023/06/06 01:12:20;;;;;;;8.03;7.63;;;19.70;25.90;;;;;;4993426;28;20429;-74
2023/06/06 01:15:13;;;;;;;8.37;7.87;;;19.70;25.90;;;;;;4992872;28;20927;-74
2023/06/06 01:17:42;;;;;;;7.83;7.53;;;19.70;25.80;;;;;;4994262;28;20428;-74
2023/06/06 01:20:09;;;;;;;7.90;7.60;;;19.60;26.00;;;;;;4994136;28;20421;-74
2023/06/06 01:22:36;;;;;;;8.00;7.60;;;19.60;26.00;;;;;;4993376;28;20779;-75
2023/06/06 01:25:03;;;;;;;8.23;7.83;;;19.60;26.30;;;;;;4993623;28;20420;-73
2023/06/06 01:27:33;;;;;;;8.23;7.83;;;19.60;26.50;;;;;;4993803;28;20904;-74
2023/06/06 01:30:01;;;;;;;8.10;7.63;;;19.60;26.60;;;;;;4993902;28;20759;-73
2023/06/06 01:32:48;;;;;;;8.23;7.83;;;19.60;26.60;;;;;;4993320;28;20421;-73
2023/06/06 01:35:35;;;;;;;7.93;7.63;;;19.60;26.60;;;;;;4993975;28;20448;-74
2023/06/06 01:38:10;;;;;;;7.87;7.47;;;19.60;26.70;;;;;;4993451;28;20445;-74
2023/06/06 01:40:37;;;;;;;7.27;6.87;;;19.60;26.80;;;;;;4993826;28;20530;-74
2023/06/06 01:43:05;;;;;;;8.43;8.07;;;19.50;26.70;;;;;;4993323;28;20851;-74
2023/06/06 01:45:32;;;;;;;8.30;7.70;;;19.60;26.90;;;;;;4993972;28;20944;-74
2023/06/06 01:47:59;;;;;;;8.40;8.00;;;19.50;27.00;;;;;;4993974;28;20417;-73
2023/06/06 01:50:25;;;;;;;8.77;8.37;;;19.50;27.10;;;;;;4992675;28;20531;-73
2023/06/06 01:52:54;;;;;;;8.53;8.13;;;19.50;27.10;;;;;;4993294;28;20944;-73
2023/06/06 01:55:20;;;;;;;8.77;8.10;;;19.60;26.90;;;;;;4993454;28;20664;-74
2023/06/06 01:57:46;;;;;;;8.17;7.77;;;19.50;26.80;;;;;;4993334;28;20845;-73
2023/06/06 02:00:12;;;;;;;9.00;8.60;;;19.50;26.50;;;;;;4993024;28;20455;-73
2023/06/06 02:02:38;;;;;;;8.73;8.13;;;19.40;26.50;;;;;;4992196;28;20773;-73
2023/06/06 02:05:04;;;;;;;8.10;7.80;;;19.40;26.60;;;;;;4993191;28;20420;-73
2023/06/06 02:07:30;;;;;;;8.57;8.27;;;19.40;26.60;;;;;;4993170;28;20178;-74
2023/06/06 02:10:46;;;;;;;8.03;7.73;;;19.30;26.80;;;;;;4993244;28;20424;-74
2023/06/06 02:13:11;;;;;;;9.00;8.50;;;19.30;26.90;;;;;;4992307;28;20452;-74
2023/06/06 02:15:37;;;;;;;8.40;7.90;;;19.30;26.90;;;;;;4993218;28;20422;-74
2023/06/06 02:18:03;;;;;;;8.53;8.13;;;19.30;27.00;;;;;;4986422;28;20583;-74
2023/06/06 02:20:28;;;;;;;7.60;7.30;;;19.30;27.10;;;;;;4992215;28;20765;-74
2023/06/06 02:22:54;;;;;;;8.87;8.47;;;19.20;26.90;;;;;;4991741;28;20437;-73
2023/06/06 02:25:23;;;;;;;7.93;7.63;;;19.10;27.60;;;;;;4991038;28;20178;-74
2023/06/06 02:27:50;;;;;;;8.07;7.77;;;19.00;27.40;;;;;;4992360;28;20551;-74
2023/06/06 02:30:15;;;;;;;8.57;8.07;;;18.80;28.20;;;;;;4992181;28;20413;-73
2023/06/06 02:32:41;;;;;;;9.10;8.60;;;18.60;29.00;;;;;;4991260;28;20464;-74
2023/06/06 02:35:07;;;;;;;8.80;8.30;;;18.50;29.00;;;;;;4992136;28;20260;-74
2023/06/06 02:37:33;;;;;;;8.30;7.90;;;18.30;29.20;;;;;;4992039;28;20424;-74
2023/06/06 02:40:06;;;;;;;9.03;8.63;;;18.50;29.00;;;;;;4991437;28;20405;-74
2023/06/06 02:42:34;;;;;;;10.07;9.40;;;18.60;28.90;;;;;;4991275;28;20415;-73
2023/06/06 02:45:00;;;;;;;9.53;9.03;;;18.70;28.30;;;;;;4993422;28;20512;-74
2023/06/06 02:47:26;;;;;;;9.90;9.40;;;18.70;27.90;;;;;;4993000;28;20840;-74
2023/06/06 02:49:51;;;;;;;9.17;8.57;;;18.80;28.00;;;;;;4993948;28;20174;-73
2023/06/06 02:52:17;;;;;;;8.67;8.17;;;18.80;28.50;;;;;;4996346;28;20784;-73
2023/06/06 02:54:42;;;;;;;8.90;8.50;;;18.90;28.70;;;;;;4997373;28;20192;-74
2023/06/06 02:57:08;;;;;;;9.70;9.20;;;18.90;28.80;;;;;;4996971;28;20178;-75
2023/06/06 02:59:33;;;;;;;10.00;9.40;;;18.90;28.90;;;;;;4996931;28;20315;-71
2023/06/06 03:01:59;;;;;;;9.63;9.13;;;18.90;28.70;;;;;;4996179;28;20669;-71
2023/06/06 03:04:25;;;;;;;9.60;9.20;;;18.90;28.30;;;;;;4994929;28;20209;-72
2023/06/06 03:06:50;;;;;;;10.40;9.90;;;18.60;29.00;;;;;;4996643;28;20170;-72
2023/06/06 03:09:16;;;;;;;10.20;9.70;;;18.50;29.40;;;;;;4996638;28;20933;-72
2023/06/06 03:11:41;;;;;;;10.40;9.90;;;18.50;29.50;;;;;;4996221;28;20313;-72
2023/06/06 03:14:08;;;;;;;10.23;9.63;;;18.50;29.20;;;;;;4996483;28;20202;-72
2023/06/06 03:16:34;;;;;;;10.23;9.77;;;18.60;29.10;;;;;;4996627;28;20260;-72
2023/06/06 03:19:00;;;;;;;10.13;9.63;;;18.60;29.00;;;;;;4996391;28;20424;-72
2023/06/06 03:21:26;;;;;;;10.53;10.03;;;18.70;29.10;;;;;;4996397;28;20469;-73
2023/06/06 03:23:52;;;;;;;10.63;10.20;;;18.60;29.10;;;;;;4996284;28;20660;-73
2023/06/06 03:26:19;;;;;;;9.87;9.37;;;18.60;29.00;;;;;;4996388;28;20287;-73
2023/06/06 03:28:45;;;;;;;9.77;9.27;;;18.60;29.00;;;;;;4996430;28;20405;-73
2023/06/06 03:31:11;;;;;;;10.50;10.00;;;18.70;29.00;;;;;;4996128;28;20421;-73
2023/06/06 03:33:36;;;;;;;9.43;9.03;;;18.60;29.00;;;;;;4995052;28;20451;-73
2023/06/06 03:36:06;;;;;;;10.10;9.60;;;18.60;29.00;;;;;;4995293;28;20247;-73
2023/06/06 03:38:31;;;;;;;11.47;10.83;;;18.60;29.00;;;;;;4996355;28;20603;-72
2023/06/06 03:40:57;;;;;;;11.33;10.77;;;18.60;29.00;;;;;;4999604;28;20499;-73
2023/06/06 03:43:22;;;;;;;10.00;9.40;;;18.60;29.00;;;;;;4994202;28;20206;-73
2023/06/06 03:45:48;;;;;;;10.30;9.80;;;18.60;29.00;;;;;;4995200;28;20182;-72
2023/06/06 03:48:13;;;;;;;9.33;8.93;;;18.60;29.00;;;;;;4994196;28;20174;-72
2023/06/06 03:50:39;;;;;;;10.50;9.90;;;18.60;29.00;;;;;;4995517;28;20521;-73
2023/06/06 03:53:05;;;;;;;10.77;10.07;;;18.70;29.10;;;;;;5008940;28;20699;-72
2023/06/06 03:55:33;;;;;;;10.70;10.27;;;18.40;28.90;;;;;;4995699;28;20425;-72
2023/06/06 03:57:58;;;;;;;11.23;10.70;;;18.00;30.30;;;;;;4995612;28;20605;-73
2023/06/06 04:00:25;;;;;;;12.37;11.77;;;17.90;31.00;;;;;;4993588;28;20465;-73
2023/06/06 04:02:51;;;;;;;11.10;10.50;;;17.80;31.30;;;;;;4993472;28;20783;-73
2023/06/06 04:05:16;;;;;;;11.20;10.70;;;17.90;31.30;;;;;;4994657;28;20488;-73
2023/06/06 04:07:43;;;;;;;10.90;10.40;;;18.00;30.70;;;;;;4996113;28;20531;-72
2023/06/06 04:10:08;;;;;;;10.87;10.37;;;18.10;30.20;;;;;;4997690;28;20264;-73
2023/06/06 04:12:34;;;;;;;11.20;10.60;;;18.30;29.90;;;;;;4994251;28;20452;-73
2023/06/06 04:14:59;;;;;;;11.27;10.70;;;18.40;29.60;;;;;;4995316;28;20173;-73
2023/06/06 04:17:26;;;;;;;11.07;10.50;;;18.40;29.20;;;;;;4994419;28;20298;-72
2023/06/06 04:19:52;;;;;;;11.63;11.13;;;18.40;29.00;;;;;;5008641;28;20626;-73
2023/06/06 04:22:19;;;;;;;14.37;13.37;;;18.50;29.00;;;;;;4994586;28;20497;-73
2023/06/06 04:24:46;;;;;;;11.20;10.67;;;18.40;28.90;;;;;;4995603;28;20467;-72
2023/06/06 04:27:12;;;;;;;13.53;12.67;;;18.30;29.60;;;;;;4995622;28;20405;-73
2023/06/06 04:29:40;;;;;;;12.03;11.33;;;18.20;29.70;;;;;;4995085;28;20420;-73
2023/06/06 04:32:08;;;;;;;11.63;11.13;;;18.20;30.00;;;;;;4994152;28;20175;-73
2023/06/06 04:34:39;;;;;;;11.90;11.37;;;18.20;29.90;;;;;;4994299;28;20437;-73
2023/06/06 04:37:05;;;;;;;11.73;11.07;;;18.20;29.90;;;;;;5009788;28;20790;-73
2023/06/06 04:39:32;;;;;;;11.97;11.47;;;18.30;29.90;;;;;;4994946;28;20421;-72
2023/06/06 04:41:58;;;;;;;12.70;11.90;;;18.30;29.40;;;;;;4993344;28;20205;-73
2023/06/06 04:44:25;;;;;;;11.80;11.20;;;18.40;29.30;;;;;;5010463;28;20429;-73
2023/06/06 04:46:52;;;;;;;13.50;12.80;;;18.40;29.30;;;;;;4994854;28;20761;-73
2023/06/06 04:49:21;;;;;;;13.37;12.67;;;18.50;29.00;;;;;;5010089;28;20810;-73
2023/06/06 04:51:47;;;;;;;11.60;11.10;;;18.50;29.00;;;;;;4994678;28;20516;-72
2023/06/06 04:54:12;;;;;;;14.03;13.10;;;18.60;29.00;;;;;;4994427;28;20641;-72
2023/06/06 04:56:40;;;;;;;13.30;12.50;;;18.60;29.10;;;;;;4995368;28;20197;-73
2023/06/06 04:59:06;;;;;;;11.93;11.43;;;18.60;29.00;;;;;;4993890;28;20844;-73
2023/06/06 05:01:36;;;;;;;12.40;11.80;;;18.60;29.00;;;;;;4993298;28;20464;-73
2023/06/06 05:04:02;;;;;;;13.13;12.30;;;18.60;28.50;;;;;;4994475;28;20430;-73
2023/06/06 05:06:31;;;;;;;12.30;11.70;;;18.60;28.60;;;;;;4993388;28;20783;-72
2023/06/06 05:09:03;;;;;;;12.77;12.07;;;18.60;28.50;;;;;;4991202;28;20489;-73
2023/06/06 05:11:29;;;;;;;12.13;11.53;;;18.60;28.50;;;;;;4991587;28;20824;-74
2023/06/06 05:13:55;;;;;;;12.03;11.43;;;18.60;28.20;;;;;;4992434;28;20453;-73
2023/06/06 05:16:21;;;;;;;12.57;11.97;;;18.60;28.20;;;;;;4994431;28;20237;-73
2023/06/06 05:18:46;;;;;;;11.63;11.03;;;18.60;27.50;;;;;;4992621;28;20240;-73
2023/06/06 05:21:13;;;;;;;11.30;10.70;;;18.60;27.80;;;;;;4991296;28;21003;-73
2023/06/06 05:23:39;;;;;;;11.90;11.10;;;18.60;26.90;;;;;;4993964;28;20249;-74
2023/06/06 05:26:05;;;;;;;11.70;11.20;;;18.60;26.80;;;;;;4993873;28;20858;-73
2023/06/06 05:28:30;;;;;;;12.83;11.97;;;18.70;26.50;;;;;;4994618;28;20174;-73
2023/06/06 05:30:56;;;;;;;12.30;11.60;;;18.60;25.90;;;;;;4994156;28;20496;-75
2023/06/06 05:33:22;;;;;;;12.10;11.27;;;18.50;25.90;;;;;;4992108;28;20301;-76
2023/06/06 05:35:48;;;;;;;13.27;12.47;;;18.60;26.40;;;;;;4994166;28;20182;-74
2023/06/06 05:38:18;;;;;;;13.50;12.57;;;18.60;25.60;;;;;;4993828;28;20410;-74
2023/06/06 05:40:44;;;;;;;12.53;11.83;;;18.50;25.80;;;;;;4993727;28;20194;-73
2023/06/06 05:43:09;;;;;;;12.70;12.00;;;18.40;25.90;;;;;;4991805;28;20440;-73
2023/06/06 05:45:35;;;;;;;13.50;12.60;;;18.40;25.80;;;;;;4993455;28;20244;-73
2023/06/06 05:48:01;;;;;;;12.93;12.13;;;18.40;25.90;;;;;;4993358;28;20316;-72
2023/06/06 05:50:27;;;;;;;13.50;12.70;;;18.40;26.10;;;;;;4992250;28;20245;-72
2023/06/06 05:52:53;;;;;;;12.60;12.00;;;18.40;25.80;;;;;;4992503;28;20254;-73
2023/06/06 05:55:27;;;;;;;12.40;11.70;;;18.40;26.20;;;;;;4993306;28;20420;-72
2023/06/06 05:57:53;;;;;;;12.63;11.93;;;18.50;26.00;;;;;;4991682;28;20433;-71
2023/06/06 06:00:19;;;;;;;12.00;11.40;;;18.70;25.70;;;;;;4992406;28;20409;-71
2023/06/06 06:02:44;;;;;;;12.30;11.60;;;18.60;25.50;;;;;;4992230;28;20186;-71
2023/06/06 06:05:10;;;;;;;12.60;11.90;;;18.70;25.50;;;;;;4989592;28;20556;-72
2023/06/06 06:07:37;;;;;;;11.50;10.73;;;18.80;25.00;;;;;;4980079;28;20178;-72
2023/06/06 06:10:03;;;;;;;12.97;12.00;;;18.70;25.00;;;;;;4973133;28;20186;-72
2023/06/06 06:12:28;;;;;;;12.10;11.47;;;18.70;24.80;;;;;;4972999;28;20438;-72
2023/06/06 06:14:54;;;;;;;12.20;11.50;;;18.70;25.10;;;;;;4973386;28;20187;-72
2023/06/06 06:17:20;;;;;;;12.30;11.60;;;18.70;24.80;;;;;;4973278;28;20241;-71
2023/06/06 06:19:46;;;;;;;12.00;11.40;;;18.70;24.50;;;;;;4975124;28;20660;-72
2023/06/06 06:22:11;;;;;;;12.50;11.30;;;18.60;24.50;;;;;;4990695;28;20568;-72
2023/06/06 06:24:37;;;;;;;12.57;11.87;;;18.70;24.90;;;;;;4991089;28;20190;-71
2023/06/06 06:27:02;;;;;;;12.17;11.37;;;18.80;24.30;;;;;;4997285;28;20169;-72
2023/06/06 06:29:28;;;;;;;13.00;12.30;;;18.80;23.90;;;;;;4997543;28;20201;-71
2023/06/06 06:31:53;;;;;;;13.40;12.70;;;18.90;23.70;;;;;;4996382;28;20201;-71
2023/06/06 06:34:19;;;;;;;12.87;12.17;;;18.90;23.60;;;;;;4995795;28;20197;-72
2023/06/06 06:36:44;;;;;;;12.27;11.57;;;19.00;23.40;;;;;;4997427;28;20186;-71
2023/06/06 06:39:10;;;;;;;13.17;12.40;;;19.10;23.10;;;;;;4997160;28;20269;-72
2023/06/06 06:41:36;;;;;;;11.53;10.77;;;19.10;23.50;;;;;;4996950;28;20288;-72
2023/06/06 06:44:01;;;;;;;13.40;12.80;;;19.20;22.50;;;;;;4997462;28;20189;-72
2023/06/06 06:46:27;;;;;;;12.23;11.57;;;19.20;22.50;;;;;;4997310;28;20174;-72
2023/06/06 06:48:52;;;;;;;12.30;11.57;;;19.20;22.40;;;;;;4999206;28;20177;-72
2023/06/06 06:51:19;;;;;;;12.83;12.10;;;19.20;22.70;;;;;;4998210;28;20591;-72
2023/06/06 06:53:45;;;;;;;12.10;11.50;;;19.20;22.50;;;;;;4999288;28;20638;-72
2023/06/06 06:56:10;;;;;;;12.47;11.87;;;19.30;22.30;;;;;;4997945;28;20503;-72
2023/06/06 06:58:37;;;;;;;11.67;11.07;;;19.30;22.20;;;;;;4999441;28;20186;-72
2023/06/06 07:01:05;;;;;;;11.70;11.10;;;19.30;22.20;;;;;;4997638;28;20200;-72
2023/06/06 07:03:34;;;;;;;12.20;11.53;;;19.40;21.30;;;;;;4996654;28;20444;-72
2023/06/06 07:05:59;;;;;;;11.67;10.80;;;19.50;21.20;;;;;;4997423;28;20456;-72
2023/06/06 07:08:25;;;;;;;11.50;11.00;;;19.50;21.30;;;;;;4998651;28;20904;-72
2023/06/06 07:10:51;;;;;;;11.10;10.47;;;19.60;20.90;;;;;;4998550;28;20189;-72
2023/06/06 07:13:18;;;;;;;11.50;10.50;;;19.70;20.80;;;;;;4996788;28;20789;-72
2023/06/06 07:15:43;;;;;;;10.40;9.80;;;19.70;20.40;;;;;;4998969;28;20177;-72
2023/06/06 07:18:10;;;;;;;10.67;10.17;;;19.80;19.50;;;;;;4997713;28;20413;-72
2023/06/06 07:20:35;;;;;;;11.10;10.13;;;19.90;19.90;;;;;;4998724;28;20321;-72
2023/06/06 07:23:02;;;;;;;10.73;10.23;;;20.00;18.90;;;;;;4996991;28;20437;-71
2023/06/06 07:25:28;;;;;;;10.47;9.97;;;20.00;19.00;;;;;;4997295;28;20182;-71
2023/06/06 07:27:54;;;;;;;10.87;10.07;;;20.00;19.20;;;;;;4998711;28;20772;-72
2023/06/06 07:30:20;;;;;;;10.70;10.20;;;20.10;19.50;;;;;;4997314;28;20177;-72
2023/06/06 07:32:49;;;;;;;11.73;11.10;;;20.20;18.40;;;;;;4997171;28;20432;-72
2023/06/06 07:35:19;;;;;;;11.47;10.87;;;20.10;18.70;;;;;;4998338;28;20435;-72
2023/06/06 07:37:44;;;;;;;10.67;10.17;;;20.20;18.80;;;;;;4994973;28;20409;-72
2023/06/06 07:40:11;;;;;;;10.33;9.83;;;20.20;18.00;;;;;;4995317;28;20416;-72
2023/06/06 07:42:37;;;;;;;10.00;9.60;;;20.30;17.60;;;;;;4995080;28;20240;-71
2023/06/06 07:45:06;;;;;;;10.97;10.40;;;20.40;17.50;;;;;;4995403;28;20416;-71
2023/06/06 07:47:32;;;;;;;10.40;9.80;;;20.60;17.80;;;;;;4995796;28;20462;-71
2023/06/06 07:49:57;;;;;;;11.57;10.87;;;20.60;17.40;;;;;;4995407;28;20872;-72
2023/06/06 07:52:25;;;;;;;11.13;10.07;;;20.50;17.70;;;;;;4994617;28;20309;-71
2023/06/06 07:54:51;;;;;;;10.70;10.20;;;20.60;17.30;;;;;;4995272;28;20181;-71
2023/06/06 07:57:17;;;;;;;9.73;9.20;;;20.60;17.50;;;;;;4995309;28;20413;-72
2023/06/06 07:59:43;;;;;;;9.80;9.10;;;20.70;17.10;;;;;;4995451;28;20248;-72
2023/06/06 08:02:10;;;;;;;10.93;9.80;;;20.80;16.70;;;;;;4993128;28;20472;-72
2023/06/06 08:04:35;;;;;;;10.10;9.60;;;20.90;16.30;;;;;;4995079;28;20437;-71
2023/06/06 08:07:03;;;;;;;10.30;9.70;;;20.90;16.30;;;;;;4995145;28;20939;-71
2023/06/06 08:09:30;;;;;;;9.17;8.70;;;20.90;16.40;;;;;;4995044;28;20165;-72
2023/06/06 08:11:56;;;;;;;11.13;10.03;;;20.90;16.40;;;;;;4994038;28;20516;-72
2023/06/06 08:14:21;;;;;;;10.13;9.63;;;20.90;16.30;;;;;;4995035;28;20888;-72
2023/06/06 08:16:47;;;;;;;9.50;8.80;;;21.00;16.30;;;;;;4993616;28;20185;-72
2023/06/06 08:19:12;;;;;;;10.47;9.77;;;21.10;16.00;;;;;;4994946;28;20170;-71
2023/06/06 08:21:38;;;;;;;11.20;10.30;;;21.20;15.70;;;;;;4994004;28;20213;-71
2023/06/06 08:24:03;;;;;;;10.10;9.20;;;21.20;15.60;;;;;;4994688;28;20193;-72
2023/06/06 08:26:29;;;;;;;10.53;9.83;;;21.20;16.00;;;;;;4994621;28;20719;-71
2023/06/06 08:28:55;;;;;;;10.47;9.87;;;21.40;15.40;;;;;;4995017;28;20249;-73
2023/06/06 08:31:20;;;;;;;10.67;9.90;;;21.40;15.60;;;;;;4993777;28;20528;-72
2023/06/06 08:33:46;;;;;;;10.27;9.73;;;21.40;16.20;;;;;;4994509;28;20808;-72
2023/06/06 08:36:12;;;;;;;10.90;10.30;;;21.40;16.30;;;;;;4994816;28;20178;-71
2023/06/06 08:38:38;;;;;;;10.30;9.70;;;21.40;16.20;;;;;;4994670;28;20413;-72
2023/06/06 08:41:05;;;;;;;9.93;9.43;;;21.40;16.20;;;;;;4994596;28;20978;-71
2023/06/06 08:43:36;;;;;;;10.53;9.93;;;21.30;16.20;;;;;;4994100;28;20278;-71
2023/06/06 08:46:02;;;;;;;8.73;8.23;;;21.30;16.80;;;;;;4994323;28;20497;-71
2023/06/06 08:48:29;;;;;;;10.53;9.67;;;21.30;16.50;;;;;;4994222;28;20428;-71
2023/06/06 08:50:59;;;;;;;10.33;9.80;;;21.40;16.30;;;;;;4994131;28;20411;-71
2023/06/06 08:53:25;;;;;;;11.00;10.30;;;21.40;16.20;;;;;;4993537;28;20969;-71
2023/06/06 08:55:55;;;;;;;10.80;10.10;;;21.50;16.30;;;;;;4994019;28;20413;-72
2023/06/06 08:58:21;;;;;;;10.37;9.77;;;21.40;15.60;;;;;;4994208;28;20582;-71
2023/06/06 09:00:49;;;;;;;9.67;9.07;;;21.50;15.90;;;;;;4993789;28;20460;-71
2023/06/06 09:03:15;;;;;;;10.80;10.20;;;21.50;15.80;;;;;;4993225;28;21082;-71
2023/06/06 09:05:51;;;;;;;11.67;10.77;;;21.70;16.30;;;;;;4993855;28;20440;-73
2023/06/06 09:08:19;;;;;;;10.80;9.93;;;21.80;14.80;;;;;;4993951;28;20820;-72
2023/06/06 09:10:45;;;;;;;11.00;10.40;;;21.90;14.50;;;;;;4993900;28;20822;-72
2023/06/06 09:13:10;;;;;;;10.37;9.80;;;21.90;14.40;;;;;;4993157;28;20504;-72
2023/06/06 09:15:36;;;;;;;10.17;9.50;;;22.00;15.00;;;;;;4994196;28;20916;-72
2023/06/06 09:18:01;;;;;;;10.33;9.70;;;22.10;14.50;;;;;;4992864;28;20188;-72
2023/06/06 09:20:27;;;;;;;11.20;10.67;;;22.10;14.80;;;;;;4993784;28;20189;-71
2023/06/06 09:22:57;;;;;;;10.00;9.40;;;22.20;14.80;;;;;;4993928;28;20205;-71
2023/06/06 09:25:25;;;;;;;10.73;10.10;;;22.20;14.60;;;;;;4993356;28;20174;-71
2023/06/06 09:28:03;;;;;;;9.50;8.80;;;22.30;14.60;;;;;;4994364;28;20492;-72
2023/06/06 09:30:31;;;;;;;10.27;9.67;;;22.30;14.60;;;;;;4994424;28;20413;-72
2023/06/06 09:33:02;;;;;;;10.73;10.07;;;22.40;14.70;;;;;;4993266;28;20519;-72
2023/06/06 09:35:32;;;;;;;10.40;9.57;;;22.50;13.60;;;;;;4993248;28;20413;-72
2023/06/06 09:38:08;;;;;;;10.60;9.80;;;22.60;12.60;;;;;;4992817;28;20409;-72
2023/06/06 09:40:44;;;;;;;9.83;9.10;;;22.70;12.70;;;;;;4993167;28;20452;-72
2023/06/06 09:43:10;;;;;;;9.00;8.50;;;22.70;11.60;;;;;;4992662;28;20491;-72
2023/06/06 09:45:50;;;;;;;9.67;9.17;;;22.80;12.40;;;;;;4993257;28;20405;-72
2023/06/06 09:48:22;;;;;;;8.80;8.30;;;22.70;11.80;;;;;;4993251;28;20240;-72
2023/06/06 09:50:49;;;;;;;9.70;9.20;;;22.80;11.70;;;;;;4993049;28;20422;-73
2023/06/06 09:53:15;;;;;;;9.60;9.10;;;22.90;11.50;;;;;;4992389;28;20433;-71
2023/06/06 09:55:42;;;;;;;10.17;9.53;;;23.00;11.10;;;;;;4993057;28;20418;-71
2023/06/06 09:58:13;;;;;;;10.43;9.67;;;23.00;11.10;;;;;;4992751;28;20415;-72
2023/06/06 10:00:38;;;;;;;10.97;10.27;;;23.10;11.50;;;;;;4992506;28;20890;-72
2023/06/06 10:03:06;;;;;;;9.37;8.90;;;23.30;10.40;;;;;;4992213;28;20460;-72
2023/06/06 10:05:32;;;;;;;8.93;8.43;;;23.30;9.50;;;;;;4993079;28;20224;-72
2023/06/06 10:07:58;;;;;;;9.50;9.00;;;23.30;9.60;;;;;;4992869;28;20401;-72
2023/06/06 10:10:24;;;;;;;9.87;9.27;;;23.50;9.60;;;;;;4992737;28;20650;-71
2023/06/06 10:12:52;;;;;;;9.20;8.70;;;23.70;9.70;;;;;;4991866;28;20982;-72
2023/06/06 10:15:19;;;;;;;10.37;9.60;;;23.70;9.80;;;;;;4990785;28;21304;-71
2023/06/06 10:17:45;;;;;;;9.60;8.90;;;23.80;9.40;;;;;;4992574;28;20461;-72
2023/06/06 10:20:12;;;;;;;10.50;9.70;;;23.90;9.40;;;;;;4992055;28;20417;-72
2023/06/06 10:22:39;;;;;;;10.13;9.53;;;24.10;9.00;;;;;;4991416;28;20206;-72
2023/06/06 10:25:13;;;;;;;10.13;9.43;;;24.50;8.30;;;;;;4992408;28;20416;-72
2023/06/06 10:28:10;;;;;;;10.00;9.50;;;24.50;8.20;;;;;;4992445;28;20467;-72
2023/06/06 10:30:41;;;;;;;10.20;9.60;;;24.60;8.40;;;;;;4992147;28;20420;-72
2023/06/06 10:33:34;;;;;;;13.27;12.37;;;24.70;8.40;;;;;;4991470;28;20991;-72
2023/06/06 10:36:04;;;;;;;15.20;10.33;;;24.80;8.60;;;;;;4992228;28;20405;-72
2023/06/06 10:38:31;;;;;;;11.30;10.70;;;24.80;8.80;;;;;;4992309;28;20419;-72
2023/06/06 10:41:00;;;;;;;10.90;10.17;;;24.80;8.70;;;;;;4992512;28;20449;-72
2023/06/06 10:43:35;;;;;;;11.30;10.50;;;24.90;8.70;;;;;;4991992;28;20490;-73
2023/06/06 10:46:02;;;;;;;11.53;10.93;;;25.00;8.80;;;;;;4992440;28;20444;-73
2023/06/06 10:48:38;;;;;;;11.97;11.17;;;24.90;8.20;;;;;;4992395;28;20413;-72
2023/06/06 10:51:04;;;;;;;10.20;9.60;;;25.00;8.10;;;;;;4992168;28;20496;-73
2023/06/06 10:53:31;;;;;;;10.33;9.67;;;25.10;8.40;;;;;;4992010;28;20444;-72
2023/06/06 10:55:56;;;;;;;21.43;10.27;;;25.10;8.30;;;;;;4992682;28;20404;-72
2023/06/06 10:58:33;;;;;;;10.00;9.50;;;25.00;8.60;;;;;;4992617;28;20558;-72
2023/06/06 11:01:04;;;;;;;10.30;9.70;;;24.90;8.20;;;;;;4992415;28;20201;-72
2023/06/06 11:03:35;;;;;;;10.30;9.70;;;24.70;8.60;;;;;;4991747;28;20429;-72
2023/06/06 11:06:03;;;;;;;9.80;9.20;;;24.80;8.60;;;;;;4992431;28;20783;-72
2023/06/06 11:08:53;;;;;;;10.53;9.63;;;24.70;8.50;;;;;;4992221;28;20483;-72
2023/06/06 11:11:28;;;;;;;10.77;10.07;;;24.80;8.50;;;;;;4991641;28;20419;-72
2023/06/06 11:14:00;;;;;;;10.03;9.53;;;24.50;8.10;;;;;;4995926;28;20806;-72
2023/06/06 11:16:46;;;;;;;9.97;9.50;;;24.50;8.70;;;;;;4995813;28;20932;-73
2023/06/06 11:19:18;;;;;;;10.57;9.97;;;24.50;7.20;;;;;;4991815;28;20492;-72
2023/06/06 11:21:49;;;;;;;11.43;10.40;;;24.50;7.20;;;;;;4995225;28;20547;-72
2023/06/06 11:24:16;;;;;;;9.83;9.33;;;24.50;7.20;;;;;;4995666;28;20432;-73
2023/06/06 11:26:42;;;;;;;10.40;9.70;;;24.70;7.10;;;;;;4995709;28;20436;-72
2023/06/06 11:29:09;;;;;;;10.33;9.77;;;24.70;7.40;;;;;;4995748;28;20413;-72
2023/06/06 11:31:36;;;;;;;11.73;10.07;;;24.70;6.90;;;;;;4994039;28;20421;-72
2023/06/06 11:34:13;;;;;;;9.50;9.00;;;24.50;7.20;;;;;;4995547;28;20491;-73
2023/06/06 11:36:44;;;;;;;10.53;9.83;;;24.40;7.70;;;;;;4994239;28;20507;-72
2023/06/06 11:39:12;;;;;;;11.13;10.40;;;24.40;6.90;;;;;;4995597;28;21003;-72
2023/06/06 11:41:41;;;;;;;10.20;9.70;;;24.40;6.40;;;;;;4994674;28;20976;-73
2023/06/06 11:44:07;;;;;;;9.90;9.40;;;24.30;7.10;;;;;;4994075;28;20433;-72
2023/06/06 11:46:48;;;;;;;9.50;9.00;;;24.30;7.10;;;;;;4995525;28;20421;-72
2023/06/06 11:49:15;;;;;;;9.73;9.23;;;24.40;5.60;;;;;;4995301;28;20268;-72
2023/06/06 11:51:41;;;;;;;10.00;9.60;;;24.50;5.60;;;;;;4994685;28;20916;-73
2023/06/06 11:54:17;;;;;;;9.70;9.20;;;24.60;6.00;;;;;;4994851;28;20484;-72
2023/06/06 11:56:43;;;;;;;9.80;9.20;;;24.70;5.10;;;;;;4995342;28;20508;-72
2023/06/06 11:59:11;;;;;;;10.03;9.20;;;24.70;4.00;;;;;;4993990;28;20443;-72
2023/06/06 12:01:53;;;;;;;9.70;9.30;;;24.60;4.60;;;;;;5009840;28;20467;-73
2023/06/06 12:04:23;;;;;;;9.33;8.90;;;24.60;5.60;;;;;;4995079;28;20807;-72
2023/06/06 12:06:50;;;;;;;9.63;9.13;;;24.60;2.70;;;;;;4995235;28;20424;-72
2023/06/06 12:09:17;;;;;;;9.60;8.90;;;24.50;3.80;;;;;;4995424;28;20410;-72
2023/06/06 12:11:59;;;;;;;8.90;8.20;;;24.50;3.30;;;;;;4994434;28;20429;-73
2023/06/06 12:14:26;;;;;;;9.07;8.60;;;24.70;4.40;;;;;;4995259;28;20429;-73
2023/06/06 12:16:53;;;;;;;9.50;9.00;;;24.60;4.50;;;;;;4995188;28;20410;-73
2023/06/06 12:19:19;;;;;;;9.37;8.97;;;24.50;5.00;;;;;;4995371;28;20421;-72
2023/06/06 12:21:50;;;;;;;8.67;8.27;;;24.50;5.00;;;;;;4994533;28;20452;-72
2023/06/06 12:24:21;;;;;;;9.93;9.33;;;24.40;4.90;;;;;;4994488;28;20437;-73
2023/06/06 12:26:53;;;;;;;9.33;8.90;;;24.40;5.70;;;;;;4995007;28;20409;-73
2023/06/06 12:29:33;;;;;;;10.70;10.10;;;24.30;6.00;;;;;;4994903;28;20417;-72
2023/06/06 12:32:29;;;;;;;10.30;9.70;;;24.30;6.20;;;;;;4994406;28;20412;-72
2023/06/06 12:35:02;;;;;;;10.47;9.87;;;24.20;7.00;;;;;;4994621;28;20424;-72
2023/06/06 12:37:41;;;;;;;10.77;10.17;;;24.60;5.40;;;;;;4994675;28;20413;-72
2023/06/06 12:40:26;;;;;;;10.60;10.10;;;24.60;5.50;;;;;;4994344;28;20420;-73
2023/06/06 12:42:58;;;;;;;9.57;9.07;;;24.50;5.50;;;;;;4993862;28;20473;-73